createdAt,value
2023-02-17T00:00:08.028Z,32.07
2023-02-17T00:02:36.810Z,31.07
2023-02-17T00:05:07.491Z,28.07
2023-02-17T00:07:40.575Z,31.20
2023-02-17T00:10:09.856Z,32.13
2023-02-17T00:12:38.422Z,31.17
2023-02-17T00:15:07.488Z,32.33
2023-02-17T00:17:36.051Z,32.00
2023-02-17T00:20:06.199Z,31.30
2023-02-17T00:22:34.639Z,32.83
2023-02-17T00:25:02.970Z,33.07
2023-02-17T00:27:31.290Z,31.33
2023-02-17T00:29:59.613Z,35.70
2023-02-17T00:32:28.234Z,31.00
2023-02-17T00:34:58.531Z,28.57
2023-02-17T00:37:28.304Z,35.93
2023-02-17T00:39:56.835Z,32.47
2023-02-17T00:42:25.206Z,27.57
2023-02-17T00:44:53.627Z,26.43
2023-02-17T00:47:22.129Z,29.63
2023-02-17T00:49:50.504Z,30.33
2023-02-17T00:52:20.377Z,27.83
2023-02-17T00:54:50.186Z,32.13
2023-02-17T00:57:18.497Z,27.37
2023-02-17T00:59:46.889Z,27.73
2023-02-17T01:02:15.279Z,31.40
2023-02-17T01:04:43.830Z,29.43
2023-02-17T01:07:12.132Z,28.03
2023-02-17T01:09:41.208Z,28.60
2023-02-17T01:12:12.878Z,35.73
2023-02-17T01:14:41.337Z,29.27
2023-02-17T01:17:09.737Z,28.97
2023-02-17T01:19:38.056Z,30.20
2023-02-17T01:22:06.489Z,30.93
2023-02-17T01:24:34.958Z,27.87
2023-02-17T01:27:04.806Z,32.23
2023-02-17T01:29:34.477Z,34.47
2023-02-17T01:32:05.315Z,33.17
2023-02-17T01:34:33.723Z,30.70
2023-02-17T01:37:02.148Z,28.67
2023-02-17T01:39:30.627Z,30.87
2023-02-17T01:41:59.062Z,28.43
2023-02-17T01:44:28.065Z,29.60
2023-02-17T01:46:57.973Z,27.97
2023-02-17T01:49:32.765Z,32.77
2023-02-17T01:52:07.990Z,29.63
2023-02-17T01:54:41.946Z,29.87
2023-02-17T01:57:12.480Z,28.73
2023-02-17T01:59:42.120Z,30.50
2023-02-17T02:02:12.542Z,29.63
2023-02-17T02:04:46.681Z,31.43
2023-02-17T02:07:19.116Z,28.73
2023-02-17T02:09:51.826Z,26.73
2023-02-17T02:12:22.502Z,32.23
2023-02-17T02:14:51.798Z,28.33
2023-02-17T02:17:31.125Z,28.53
2023-02-17T02:20:38.778Z,25.73
2023-02-17T02:23:28.557Z,26.83
2023-02-17T02:26:26.677Z,28.67
2023-02-17T02:29:20.438Z,28.10
2023-02-17T02:32:01.224Z,27.27
2023-02-17T02:34:37.215Z,30.10
2023-02-17T02:37:10.310Z,27.87
2023-02-17T02:39:44.039Z,26.00
2023-02-17T02:42:17.967Z,27.53
2023-02-17T02:44:46.737Z,26.37
2023-02-17T02:47:42.266Z,29.27
2023-02-17T02:50:15.276Z,25.37
2023-02-17T02:52:55.276Z,28.90
2023-02-17T02:55:35.581Z,26.87
2023-02-17T02:58:12.568Z,33.13
2023-02-17T03:00:58.410Z,34.40
2023-02-17T03:03:35.392Z,27.63
2023-02-17T03:06:12.975Z,27.50
2023-02-17T03:08:46.533Z,29.43
2023-02-17T03:11:14.976Z,27.03
2023-02-17T03:13:43.318Z,25.80
2023-02-17T03:16:15.677Z,27.03
2023-02-17T03:18:44.077Z,27.40
2023-02-17T03:21:17.250Z,26.23
2023-02-17T03:23:45.679Z,27.93
2023-02-17T03:26:14.065Z,29.63
2023-02-17T03:28:42.427Z,26.67
2023-02-17T03:31:10.894Z,31.60
2023-02-17T03:33:39.623Z,26.43
2023-02-17T03:36:08.622Z,29.63
2023-02-17T03:38:38.279Z,27.43
2023-02-17T03:41:06.623Z,29.77
2023-02-17T03:43:35.484Z,25.93
2023-02-17T03:46:04.049Z,26.90
2023-02-17T03:48:32.570Z,23.43
2023-02-17T03:51:10.420Z,27.03
2023-02-17T03:53:40.186Z,27.30
2023-02-17T03:56:08.776Z,25.50
2023-02-17T03:58:37.214Z,25.13
2023-02-17T04:01:06.077Z,24.40
2023-02-17T04:03:34.807Z,26.33
2023-02-17T04:06:03.855Z,25.10
2023-02-17T04:08:33.160Z,25.03
2023-02-17T04:11:04.682Z,24.53
2023-02-17T04:13:33.200Z,26.13
2023-02-17T04:16:04.441Z,25.77
2023-02-17T04:18:33.959Z,23.00
2023-02-17T04:21:02.573Z,25.07
2023-02-17T04:23:30.951Z,30.20
2023-02-17T04:25:59.323Z,25.87
2023-02-17T04:28:29.064Z,25.50
2023-02-17T04:30:59.965Z,23.43
2023-02-17T04:33:28.562Z,24.20
2023-02-17T04:35:59.820Z,23.63
2023-02-17T04:38:28.852Z,25.90
2023-02-17T04:40:58.372Z,26.73
2023-02-17T04:43:28.862Z,32.00
2023-02-17T04:45:57.857Z,27.77
2023-02-17T04:48:26.804Z,32.13
2023-02-17T04:50:55.180Z,33.30
2023-02-17T04:53:23.671Z,28.33
2023-02-17T04:55:53.931Z,28.90
2023-02-17T04:58:22.850Z,28.20
2023-02-17T05:00:52.882Z,36.37
2023-02-17T05:03:21.512Z,32.63
2023-02-17T05:05:50.962Z,26.90
2023-02-17T05:08:19.319Z,28.33
2023-02-17T05:10:47.801Z,30.80
2023-02-17T05:13:16.140Z,29.50
2023-02-17T05:15:44.840Z,31.20
2023-02-17T05:18:15.812Z,28.60
2023-02-17T05:20:44.382Z,30.30
2023-02-17T05:23:12.745Z,30.77
2023-02-17T05:25:41.765Z,31.70
2023-02-17T05:28:10.248Z,35.07
2023-02-17T05:30:38.757Z,33.60
2023-02-17T05:33:07.131Z,32.20
2023-02-17T05:35:37.371Z,30.63
2023-02-17T05:38:05.759Z,30.37
2023-02-17T05:40:34.303Z,29.63
2023-02-17T05:43:02.671Z,28.70
2023-02-17T05:45:31.079Z,28.03
2023-02-17T05:47:59.430Z,27.80
2023-02-17T05:50:27.805Z,30.60
2023-02-17T05:53:05.252Z,27.07
2023-02-17T05:55:33.794Z,29.73
2023-02-17T05:58:02.219Z,28.30
2023-02-17T06:00:31.113Z,27.20
2023-02-17T06:02:59.598Z,28.37
2023-02-17T06:05:28.009Z,25.47
2023-02-17T06:07:56.443Z,28.10
2023-02-17T06:10:26.155Z,26.60
2023-02-17T06:12:54.485Z,30.50
2023-02-17T06:15:22.994Z,29.53
2023-02-17T06:17:51.447Z,28.73
2023-02-17T06:20:20.066Z,31.50
2023-02-17T06:22:48.498Z,29.80
2023-02-17T06:25:17.285Z,31.80
2023-02-17T06:27:46.968Z,28.23
2023-02-17T06:30:17.685Z,27.23
2023-02-17T06:32:46.092Z,27.27
2023-02-17T06:35:14.810Z,27.07
2023-02-17T06:37:44.633Z,27.17
2023-02-17T06:40:13.695Z,25.37
2023-02-17T06:42:42.130Z,27.23
2023-02-17T06:45:12.232Z,25.80
2023-02-17T06:47:40.729Z,31.57
2023-02-17T06:50:10.391Z,29.83
2023-02-17T06:52:39.223Z,30.73
2023-02-17T06:55:08.233Z,29.07
2023-02-17T06:57:36.622Z,30.30
2023-02-17T07:00:05.826Z,30.77
2023-02-17T07:02:35.791Z,30.53
2023-02-17T07:05:04.294Z,38.70
2023-02-17T07:07:32.650Z,36.53
2023-02-17T07:10:01.117Z,35.67
2023-02-17T07:12:29.880Z,35.13
2023-02-17T07:14:58.216Z,31.30
2023-02-17T07:17:26.631Z,30.70
2023-02-17T07:19:56.301Z,32.23
2023-02-17T07:22:26.815Z,34.33
2023-02-17T07:24:55.136Z,30.93
2023-02-17T07:27:23.507Z,28.93
2023-02-17T07:29:52.035Z,29.97
2023-02-17T07:32:20.375Z,27.53
2023-02-17T07:34:48.936Z,28.07
2023-02-17T07:37:20.122Z,26.50
2023-02-17T07:39:48.496Z,27.40
2023-02-17T07:42:16.893Z,24.43
2023-02-17T07:44:48.203Z,26.63
2023-02-17T07:47:16.608Z,26.67
2023-02-17T07:49:44.940Z,26.53
2023-02-17T07:52:13.288Z,25.77
2023-02-17T07:54:42.947Z,24.40
2023-02-17T07:57:11.392Z,26.43
2023-02-17T07:59:39.738Z,27.33
2023-02-17T08:02:08.270Z,28.27
2023-02-17T08:04:36.701Z,30.40
2023-02-17T08:07:05.065Z,30.67
2023-02-17T08:09:51.034Z,30.63
2023-02-17T08:12:39.239Z,31.83
2023-02-17T08:15:10.129Z,34.03
2023-02-17T08:17:38.843Z,30.93
2023-02-17T08:20:09.333Z,33.07
2023-02-17T08:22:37.936Z,30.50
2023-02-17T08:25:06.708Z,32.17
2023-02-17T08:27:36.403Z,27.70
2023-02-17T08:30:05.302Z,27.50
2023-02-17T08:32:33.804Z,30.10
2023-02-17T08:35:02.264Z,28.00
2023-02-17T08:37:31.930Z,30.10
2023-02-17T08:40:01.774Z,30.77
2023-02-17T08:42:32.907Z,33.17
2023-02-17T08:45:02.923Z,32.47
2023-02-17T08:47:31.410Z,29.67
2023-02-17T08:49:59.752Z,30.30
2023-02-17T08:52:28.165Z,30.03
2023-02-17T08:54:56.634Z,28.07
2023-02-17T08:57:25.105Z,28.60
2023-02-17T08:59:53.934Z,29.63
2023-02-17T09:02:23.592Z,27.73
2023-02-17T09:04:52.113Z,28.13
2023-02-17T09:07:20.821Z,27.40
2023-02-17T09:09:49.272Z,29.57
2023-02-17T09:12:17.629Z,25.53
2023-02-17T09:14:46.090Z,28.90
2023-02-17T09:17:14.536Z,27.27
2023-02-17T09:19:44.364Z,25.90
2023-02-17T09:22:29.751Z,26.50
2023-02-17T09:24:59.924Z,30.47
2023-02-17T09:27:28.447Z,31.30
2023-02-17T09:29:56.924Z,30.20
2023-02-17T09:32:25.520Z,29.30
2023-02-17T09:34:55.604Z,30.37
2023-02-17T09:37:24.848Z,30.57
2023-02-17T09:39:53.294Z,29.60
2023-02-17T09:42:23.552Z,27.30
2023-02-17T09:45:00.113Z,37.80
2023-02-17T09:47:33.938Z,35.60
2023-02-17T09:50:08.494Z,31.83
2023-02-17T09:52:42.371Z,29.57
2023-02-17T09:55:14.633Z,29.97
2023-02-17T09:57:50.605Z,30.40
2023-02-17T10:00:24.670Z,30.60
2023-02-17T10:02:59.205Z,34.13
2023-02-17T10:05:36.391Z,31.17
2023-02-17T10:08:09.632Z,28.23
2023-02-17T10:10:44.518Z,28.70
2023-02-17T10:13:14.485Z,28.60
2023-02-17T10:15:47.941Z,27.57
2023-02-17T10:18:21.216Z,28.87
2023-02-17T10:20:56.792Z,28.53
2023-02-17T10:23:28.150Z,28.00
2023-02-17T10:26:07.390Z,29.17
2023-02-17T10:28:47.608Z,28.87
2023-02-17T10:31:26.750Z,28.43
2023-02-17T10:34:04.325Z,30.47
2023-02-17T10:36:48.171Z,28.50
2023-02-17T10:39:20.710Z,27.27
2023-02-17T10:41:52.703Z,29.07
2023-02-17T10:44:24.719Z,26.80
2023-02-17T10:46:55.341Z,26.63
2023-02-17T10:49:30.026Z,25.40
2023-02-17T10:52:02.953Z,28.50
2023-02-17T10:54:40.523Z,26.47
2023-02-17T10:57:12.433Z,27.50
2023-02-17T10:59:42.138Z,26.73
2023-02-17T11:02:20.575Z,30.20
2023-02-17T11:04:51.147Z,32.40
2023-02-17T11:07:28.214Z,31.50
2023-02-17T11:10:01.883Z,31.53
2023-02-17T11:12:35.001Z,29.10
2023-02-17T11:15:06.310Z,29.73
2023-02-17T11:17:39.609Z,30.87
2023-02-17T11:20:11.014Z,32.03
2023-02-17T11:22:45.262Z,32.23
2023-02-17T11:25:23.957Z,30.83
2023-02-17T11:27:53.418Z,32.10
2023-02-17T11:30:22.837Z,32.80
2023-02-17T11:32:51.953Z,29.70
2023-02-17T11:35:27.846Z,30.73
2023-02-17T11:38:04.147Z,29.90
2023-02-17T11:40:34.063Z,28.30
2023-02-17T11:43:04.834Z,30.00
2023-02-17T11:45:40.939Z,28.23
2023-02-17T11:48:27.076Z,28.37
2023-02-17T11:51:00.196Z,26.40
2023-02-17T11:53:47.946Z,28.00
2023-02-17T11:56:20.197Z,26.57
2023-02-17T11:59:18.685Z,28.83
2023-02-17T12:02:17.202Z,27.03
2023-02-17T12:05:06.014Z,26.73
2023-02-17T12:07:52.873Z,29.17
2023-02-17T12:10:35.622Z,26.40
2023-02-17T12:13:16.410Z,27.27
2023-02-17T12:15:57.084Z,30.53
2023-02-17T12:18:44.554Z,28.03
2023-02-17T12:21:22.004Z,27.10
2023-02-17T12:24:05.770Z,27.93
2023-02-17T12:26:43.444Z,28.33
2023-02-17T12:29:27.776Z,29.13
2023-02-17T12:32:11.344Z,27.33
2023-02-17T12:34:45.090Z,28.60
2023-02-17T12:37:20.862Z,30.03
2023-02-17T12:39:54.251Z,28.47
2023-02-17T12:42:28.376Z,27.13
2023-02-17T12:45:01.188Z,26.57
2023-02-17T12:47:32.571Z,34.63
2023-02-17T12:50:05.169Z,28.13
2023-02-17T12:52:39.921Z,26.90
2023-02-17T12:55:19.898Z,25.90
2023-02-17T12:57:58.135Z,26.93
2023-02-17T13:00:33.616Z,24.13
2023-02-17T13:03:03.704Z,25.77
2023-02-17T13:05:36.721Z,24.60
2023-02-17T13:08:09.649Z,26.83
2023-02-17T13:10:40.290Z,28.07
2023-02-17T13:13:14.419Z,26.00
2023-02-17T13:15:45.400Z,26.80
2023-02-17T13:18:15.970Z,22.90
2023-02-17T13:20:54.571Z,23.00
2023-02-17T13:23:36.828Z,21.80
2023-02-17T13:26:25.676Z,22.50
2023-02-17T13:29:09.002Z,22.73
2023-02-17T13:31:48.737Z,23.93
2023-02-17T13:34:30.112Z,22.17
2023-02-17T13:37:01.175Z,23.37
2023-02-17T13:39:37.028Z,22.57
2023-02-17T13:42:07.612Z,24.03
2023-02-17T13:44:41.934Z,22.20
2023-02-17T13:47:17.831Z,23.70
2023-02-17T13:49:54.089Z,23.20
2023-02-17T13:52:27.206Z,23.70
2023-02-17T13:54:57.627Z,24.17
2023-02-17T13:57:28.154Z,24.40
2023-02-17T14:00:09.352Z,23.53
2023-02-17T14:02:46.751Z,21.93
2023-02-17T14:05:20.273Z,22.63
2023-02-17T14:07:49.678Z,19.93
2023-02-17T14:10:21.481Z,22.73
2023-02-17T14:12:50.231Z,26.80
2023-02-17T14:15:22.544Z,23.53
2023-02-17T14:17:51.100Z,21.87
2023-02-17T14:20:32.333Z,23.33
2023-02-17T14:23:05.779Z,25.43
2023-02-17T14:25:36.803Z,24.07
2023-02-17T14:28:06.240Z,23.70
2023-02-17T14:30:38.601Z,23.57
2023-02-17T14:33:09.221Z,22.67
2023-02-17T14:35:39.631Z,23.87
2023-02-17T14:38:10.999Z,27.30
2023-02-17T14:40:40.360Z,28.20
2023-02-17T14:43:08.740Z,24.13
2023-02-17T14:45:38.508Z,25.47
2023-02-17T14:48:07.322Z,27.03
2023-02-17T14:50:42.257Z,26.33
2023-02-17T14:53:15.011Z,26.77
2023-02-17T14:55:49.020Z,30.87
2023-02-17T14:58:21.115Z,31.10
2023-02-17T15:00:51.688Z,27.40
2023-02-17T15:03:20.100Z,29.03
2023-02-17T15:05:48.591Z,28.47
2023-02-17T15:08:20.060Z,33.03
2023-02-17T15:10:49.227Z,28.07
2023-02-17T15:13:19.897Z,33.43
2023-02-17T15:15:50.035Z,30.73
2023-02-17T15:18:20.927Z,32.93
2023-02-17T15:20:51.306Z,28.33
2023-02-17T15:23:21.328Z,29.37
2023-02-17T15:25:50.634Z,25.10
2023-02-17T15:28:20.703Z,26.00
2023-02-17T15:30:54.573Z,27.37
2023-02-17T15:33:25.608Z,27.07
2023-02-17T15:35:55.633Z,29.53
2023-02-17T15:38:25.056Z,29.37
2023-02-17T15:40:56.771Z,30.83
2023-02-17T15:43:37.775Z,29.00
2023-02-17T15:46:14.405Z,32.67
2023-02-17T15:48:43.808Z,32.27
2023-02-17T15:51:15.106Z,29.40
2023-02-17T15:53:43.802Z,32.80
2023-02-17T15:56:15.930Z,31.03
2023-02-17T15:58:45.392Z,35.07
2023-02-17T16:01:25.813Z,30.03
2023-02-17T16:03:55.475Z,27.93
2023-02-17T16:06:24.156Z,28.40
2023-02-17T16:08:52.486Z,40.53
2023-02-17T16:11:22.558Z,34.13
2023-02-17T16:13:52.513Z,32.17
2023-02-17T16:16:25.521Z,35.77
2023-02-17T16:18:54.042Z,38.60
2023-02-17T16:21:22.496Z,32.30
2023-02-17T16:23:52.783Z,31.90
2023-02-17T16:26:26.828Z,38.20
2023-02-17T16:28:55.878Z,34.17
2023-02-17T16:31:25.691Z,34.77
2023-02-17T16:33:59.591Z,31.67
2023-02-17T16:36:31.065Z,32.33
2023-02-17T16:39:01.608Z,34.90
2023-02-17T16:41:30.112Z,34.23
2023-02-17T16:43:58.529Z,34.30
2023-02-17T16:46:31.418Z,32.00
2023-02-17T16:49:01.059Z,32.57
2023-02-17T16:51:29.580Z,39.93
2023-02-17T16:53:58.107Z,35.17
2023-02-17T16:56:31.731Z,33.80
2023-02-17T16:59:00.042Z,32.73
2023-02-17T17:01:29.826Z,31.17
2023-02-17T17:03:58.215Z,30.37
2023-02-17T17:06:30.201Z,28.80
2023-02-17T17:08:58.886Z,29.40
2023-02-17T17:11:28.673Z,35.40
2023-02-17T17:13:57.070Z,39.13
2023-02-17T17:16:31.705Z,41.27
2023-02-17T17:19:00.518Z,42.20
2023-02-17T17:21:29.700Z,42.13
2023-02-17T17:23:58.046Z,38.47
2023-02-17T17:26:32.220Z,33.57
2023-02-17T17:29:01.093Z,32.93
2023-02-17T17:31:30.857Z,32.13
2023-02-17T17:33:59.309Z,34.23
2023-02-17T17:36:31.339Z,34.97
2023-02-17T17:39:00.990Z,34.13
2023-02-17T17:41:30.520Z,41.57
2023-02-17T17:43:58.964Z,42.40
2023-02-17T17:46:31.060Z,38.23
2023-02-17T17:49:00.829Z,39.70
2023-02-17T17:51:31.280Z,36.13
2023-02-17T17:53:59.958Z,34.83
2023-02-17T17:56:30.665Z,33.57
2023-02-17T17:59:01.132Z,33.70
2023-02-17T18:01:31.039Z,31.03
2023-02-17T18:04:00.346Z,28.30
2023-02-17T18:06:31.626Z,36.03
2023-02-17T18:09:04.498Z,30.77
2023-02-17T18:11:34.550Z,29.13
2023-02-17T18:14:05.435Z,27.73
2023-02-17T18:16:36.426Z,28.70
2023-02-17T18:19:08.015Z,28.70
2023-02-17T18:21:36.777Z,26.53
2023-02-17T18:24:05.557Z,26.17
2023-02-17T18:26:34.523Z,36.70
2023-02-17T18:29:03.398Z,36.23
2023-02-17T18:31:32.046Z,36.43
2023-02-17T18:34:01.742Z,32.23
2023-02-17T18:36:30.166Z,35.00
2023-02-17T18:38:58.529Z,36.53
2023-02-17T18:41:28.821Z,35.87
2023-02-17T18:43:59.290Z,35.67
2023-02-17T18:46:28.570Z,35.17
2023-02-17T18:48:57.814Z,33.13
2023-02-17T18:51:27.845Z,29.03
2023-02-17T18:53:57.742Z,34.17
2023-02-17T18:56:28.224Z,35.10
2023-02-17T18:58:56.969Z,34.37
2023-02-17T19:01:27.774Z,35.77
2023-02-17T19:03:56.781Z,37.40
2023-02-17T19:06:28.345Z,39.30
2023-02-17T19:08:57.157Z,38.37
2023-02-17T19:11:26.580Z,36.83
2023-02-17T19:13:55.069Z,39.17
2023-02-17T19:16:25.910Z,36.83
2023-02-17T19:18:54.948Z,38.10
2023-02-17T19:21:24.114Z,36.97
2023-02-17T19:23:53.841Z,33.43
2023-02-17T19:26:22.705Z,34.17
2023-02-17T19:28:51.261Z,32.33
2023-02-17T19:31:21.370Z,32.67
2023-02-17T19:33:49.800Z,30.17
2023-02-17T19:36:20.175Z,29.70
2023-02-17T19:38:49.707Z,28.37
2023-02-17T19:41:20.645Z,28.13
2023-02-17T19:43:49.849Z,26.03
2023-02-17T19:46:21.162Z,26.40
2023-02-17T19:48:50.167Z,24.70
2023-02-17T19:51:18.886Z,24.23
2023-02-17T19:53:47.382Z,30.50
2023-02-17T19:56:18.164Z,28.03
2023-02-17T19:58:48.830Z,25.73
2023-02-17T20:01:19.561Z,34.33
2023-02-17T20:03:48.122Z,30.53
2023-02-17T20:06:18.244Z,30.23
2023-02-17T20:08:47.592Z,27.83
2023-02-17T20:11:16.636Z,29.60
2023-02-17T20:13:46.533Z,27.97
2023-02-17T20:16:18.212Z,26.33
2023-02-17T20:18:48.644Z,28.97
2023-02-17T20:21:19.306Z,27.53
2023-02-17T20:23:48.005Z,26.63
2023-02-17T20:26:19.989Z,25.80
2023-02-17T20:28:49.189Z,26.47
2023-02-17T20:31:19.504Z,28.53
2023-02-17T20:33:48.541Z,28.03
2023-02-17T20:36:17.352Z,32.07
2023-02-17T20:38:46.075Z,29.43
2023-02-17T20:41:17.310Z,28.50
2023-02-17T20:43:46.228Z,28.17
2023-02-17T20:46:17.773Z,28.77
2023-02-17T20:48:47.656Z,26.93
2023-02-17T20:51:16.145Z,28.30
2023-02-17T20:53:44.656Z,28.23
2023-02-17T20:56:15.245Z,26.83
2023-02-17T20:58:43.707Z,27.17
2023-02-17T21:01:12.557Z,26.87
2023-02-17T21:03:41.141Z,28.77
2023-02-17T21:06:21.617Z,28.50
2023-02-17T21:08:51.783Z,28.30
2023-02-17T21:11:20.439Z,29.93
2023-02-17T21:13:49.171Z,32.30
2023-02-17T21:16:20.326Z,31.07
2023-02-17T21:18:49.248Z,35.90
2023-02-17T21:21:19.057Z,35.27
2023-02-17T21:23:48.079Z,33.37
2023-02-17T21:26:17.070Z,33.93
2023-02-17T21:28:45.636Z,35.43
2023-02-17T21:31:14.976Z,34.67
2023-02-17T21:33:43.528Z,35.80
2023-02-17T21:36:13.712Z,37.20
2023-02-17T21:38:43.733Z,36.57
2023-02-17T21:41:15.388Z,35.67
2023-02-17T21:44:01.461Z,35.33
2023-02-17T21:46:31.299Z,33.37
2023-02-17T21:49:01.430Z,33.53
2023-02-17T21:51:30.469Z,32.43
2023-02-17T21:54:00.342Z,30.07
2023-02-17T21:56:28.806Z,31.33
2023-02-17T21:58:57.727Z,31.40
2023-02-17T22:01:28.011Z,29.73
2023-02-17T22:03:57.880Z,30.13
2023-02-17T22:06:28.511Z,30.03
2023-02-17T22:08:57.851Z,29.07
2023-02-17T22:11:29.859Z,28.40
2023-02-17T22:13:59.397Z,26.77
2023-02-17T22:16:30.126Z,26.67
2023-02-17T22:18:58.874Z,25.77
2023-02-17T22:21:27.831Z,25.57
2023-02-17T22:23:56.263Z,24.07
2023-02-17T22:26:26.069Z,23.67
2023-02-17T22:28:56.283Z,23.00
2023-02-17T22:31:26.709Z,23.17
2023-02-17T22:33:56.668Z,21.60
2023-02-17T22:36:27.691Z,20.67
2023-02-17T22:38:56.383Z,21.70
2023-02-17T22:41:26.679Z,20.70
2023-02-17T22:43:56.449Z,19.17
2023-02-17T22:46:27.411Z,18.60
2023-02-17T22:48:57.043Z,17.53
2023-02-17T22:51:28.091Z,16.27
2023-02-17T22:53:56.787Z,16.03
2023-02-17T22:56:25.369Z,15.30
2023-02-17T22:58:56.557Z,15.90
2023-02-17T23:01:26.712Z,14.17
2023-02-17T23:03:55.352Z,13.87
2023-02-17T23:06:25.580Z,14.13
2023-02-17T23:08:54.983Z,12.63
2023-02-17T23:11:39.024Z,12.60
2023-02-17T23:14:07.621Z,11.70
2023-02-17T23:16:37.854Z,10.97
2023-02-17T23:19:10.129Z,10.50
2023-02-17T23:21:38.995Z,9.87
2023-02-17T23:24:07.803Z,9.83
2023-02-17T23:26:36.043Z,9.20
2023-02-17T23:29:04.477Z,9.37
2023-02-17T23:31:32.912Z,8.87
2023-02-17T23:34:02.682Z,9.00
2023-02-17T23:36:31.616Z,8.97
2023-02-17T23:39:00.377Z,9.00
2023-02-17T23:41:29.398Z,8.27
2023-02-17T23:43:57.884Z,8.90
2023-02-17T23:46:26.294Z,8.23
2023-02-17T23:48:54.739Z,8.50
2023-02-17T23:51:24.641Z,9.07
2023-02-17T23:53:53.191Z,9.00
2023-02-17T23:56:23.771Z,8.90
2023-02-17T23:58:52.454Z,9.57
